sensor_id;sensor_type;location;lat;lon;timestamp;pressure;altitude;pressure_sealevel;temperature;humidity
18022;BME280;9136;48.822;7.966;2022-09-30T00:01:55;99354.50;;;9.77;100.00
18022;BME280;9136;48.822;7.966;2022-09-30T00:04:44;99363.22;;;9.77;100.00
18022;BME280;9136;48.822;7.966;2022-09-30T00:07:32;99348.56;;;9.71;100.00
18022;BME280;9136;48.822;7.966;2022-09-30T00:10:19;99333.22;;;9.62;100.00
18022;BME280;9136;48.822;7.966;2022-09-30T00:13:07;99339.31;;;9.63;100.00
18022;BME280;9136;48.822;7.966;2022-09-30T00:15:55;99352.97;;;9.71;100.00
18022;BME280;9136;48.822;7.966;2022-09-30T00:18:43;99341.50;;;9.53;100.00
18022;BME280;9136;48.822;7.966;2022-09-30T00:21:32;99334.75;;;9.48;100.00
18022;BME280;9136;48.822;7.966;2022-09-30T00:24:20;99353.63;;;9.56;100.00
18022;BME280;9136;48.822;7.966;2022-09-30T00:27:08;99365.69;;;9.60;100.00
18022;BME280;9136;48.822;7.966;2022-09-30T00:29:57;99372.56;;;9.62;100.00
18022;BME280;9136;48.822;7.966;2022-09-30T00:32:45;99366.00;;;9.52;100.00
18022;BME280;9136;48.822;7.966;2022-09-30T00:35:32;99372.56;;;9.62;100.00
18022;BME280;9136;48.822;7.966;2022-09-30T00:38:22;99373.72;;;9.55;100.00
18022;BME280;9136;48.822;7.966;2022-09-30T00:41:10;99356.56;;;9.48;100.00
18022;BME280;9136;48.822;7.966;2022-09-30T00:43:57;99365.59;;;9.41;100.00
18022;BME280;9136;48.822;7.966;2022-09-30T00:46:45;99391.50;;;9.49;100.00
18022;BME280;9136;48.822;7.966;2022-09-30T00:49:33;99384.25;;;9.33;100.00
18022;BME280;9136;48.822;7.966;2022-09-30T00:52:21;99356.00;;;9.20;100.00
18022;BME280;9136;48.822;7.966;2022-09-30T00:55:19;99386.41;;;9.24;100.00
18022;BME280;9136;48.822;7.966;2022-09-30T00:58:11;99372.72;;;9.17;100.00
18022;BME280;9136;48.822;7.966;2022-09-30T01:01:02;99392.50;;;9.24;100.00
18022;BME280;9136;48.822;7.966;2022-09-30T01:03:52;99372.09;;;9.10;100.00
18022;BME280;9136;48.822;7.966;2022-09-30T01:06:41;99387.47;;;9.20;100.00
18022;BME280;9136;48.822;7.966;2022-09-30T01:09:30;99393.91;;;9.33;100.00
18022;BME280;9136;48.822;7.966;2022-09-30T01:12:23;99349.44;;;9.09;100.00
18022;BME280;9136;48.822;7.966;2022-09-30T01:15:12;99363.66;;;9.24;100.00
18022;BME280;9136;48.822;7.966;2022-09-30T01:18:05;99384.94;;;9.38;100.00
18022;BME280;9136;48.822;7.966;2022-09-30T01:21:16;99376.00;;;9.22;100.00
18022;BME280;9136;48.822;7.966;2022-09-30T01:24:27;99385.78;;;9.39;100.00
18022;BME280;9136;48.822;7.966;2022-09-30T01:27:54;99378.69;;;9.21;100.00
18022;BME280;9136;48.822;7.966;2022-09-30T01:31:02;99368.00;;;9.25;100.00
18022;BME280;9136;48.822;7.966;2022-09-30T01:33:56;99359.34;;;9.23;100.00
18022;BME280;9136;48.822;7.966;2022-09-30T01:37:00;99361.34;;;9.16;100.00
18022;BME280;9136;48.822;7.966;2022-09-30T01:40:01;99368.34;;;9.17;100.00
18022;BME280;9136;48.822;7.966;2022-09-30T01:42:55;99410.16;;;9.41;100.00
18022;BME280;9136;48.822;7.966;2022-09-30T01:45:51;99395.72;;;9.31;100.00
18022;BME280;9136;48.822;7.966;2022-09-30T01:48:50;99379.69;;;9.16;100.00
18022;BME280;9136;48.822;7.966;2022-09-30T01:51:43;99409.88;;;9.27;100.00
18022;BME280;9136;48.822;7.966;2022-09-30T01:54:41;99408.34;;;9.21;100.00
18022;BME280;9136;48.822;7.966;2022-09-30T01:57:39;99396.66;;;9.08;100.00
18022;BME280;9136;48.822;7.966;2022-09-30T02:00:32;99433.84;;;9.17;100.00
18022;BME280;9136;48.822;7.966;2022-09-30T02:03:28;99409.88;;;9.05;100.00
18022;BME280;9136;48.822;7.966;2022-09-30T02:06:23;99423.59;;;9.11;100.00
18022;BME280;9136;48.822;7.966;2022-09-30T02:09:14;99417.78;;;9.03;100.00
18022;BME280;9136;48.822;7.966;2022-09-30T02:12:09;99401.78;;;8.89;100.00
18022;BME280;9136;48.822;7.966;2022-09-30T02:15:02;99433.88;;;8.94;100.00
18022;BME280;9136;48.822;7.966;2022-09-30T02:17:55;99432.94;;;8.95;100.00
18022;BME280;9136;48.822;7.966;2022-09-30T02:20:46;99459.41;;;9.11;100.00
18022;BME280;9136;48.822;7.966;2022-09-30T02:23:41;99428.47;;;8.99;100.00
18022;BME280;9136;48.822;7.966;2022-09-30T02:26:31;99438.25;;;9.15;100.00
18022;BME280;9136;48.822;7.966;2022-09-30T02:29:26;99433.72;;;9.21;100.00
18022;BME280;9136;48.822;7.966;2022-09-30T02:32:18;99444.06;;;9.24;100.00
18022;BME280;9136;48.822;7.966;2022-09-30T02:35:10;99423.47;;;9.14;100.00
18022;BME280;9136;48.822;7.966;2022-09-30T02:38:02;99452.69;;;9.26;100.00
18022;BME280;9136;48.822;7.966;2022-09-30T02:40:55;99450.22;;;9.23;100.00
18022;BME280;9136;48.822;7.966;2022-09-30T02:43:45;99442.66;;;9.15;100.00
18022;BME280;9136;48.822;7.966;2022-09-30T02:46:38;99440.09;;;9.13;100.00
18022;BME280;9136;48.822;7.966;2022-09-30T02:49:34;99446.94;;;9.17;100.00
18022;BME280;9136;48.822;7.966;2022-09-30T02:52:26;99452.41;;;9.11;100.00
18022;BME280;9136;48.822;7.966;2022-09-30T02:55:18;99425.22;;;8.92;100.00
18022;BME280;9136;48.822;7.966;2022-09-30T02:58:11;99434.22;;;8.85;100.00
18022;BME280;9136;48.822;7.966;2022-09-30T03:01:00;99435.13;;;8.84;100.00
18022;BME280;9136;48.822;7.966;2022-09-30T03:03:50;99454.72;;;8.74;100.00
18022;BME280;9136;48.822;7.966;2022-09-30T03:06:40;99455.25;;;8.60;100.00
18022;BME280;9136;48.822;7.966;2022-09-30T03:09:28;99424.03;;;8.29;100.00
18022;BME280;9136;48.822;7.966;2022-09-30T03:12:30;99439.88;;;8.26;100.00
18022;BME280;9136;48.822;7.966;2022-09-30T03:15:37;99418.00;;;8.03;100.00
18022;BME280;9136;48.822;7.966;2022-09-30T03:18:44;99462.50;;;8.27;100.00
18022;BME280;9136;48.822;7.966;2022-09-30T03:21:49;99453.06;;;8.23;100.00
18022;BME280;9136;48.822;7.966;2022-09-30T03:24:58;99448.84;;;8.19;100.00
18022;BME280;9136;48.822;7.966;2022-09-30T03:27:59;99441.91;;;8.18;100.00
18022;BME280;9136;48.822;7.966;2022-09-30T03:30:59;99476.09;;;8.38;100.00
18022;BME280;9136;48.822;7.966;2022-09-30T03:33:54;99477.78;;;8.39;100.00
18022;BME280;9136;48.822;7.966;2022-09-30T03:36:50;99481.22;;;8.41;100.00
18022;BME280;9136;48.822;7.966;2022-09-30T03:39:53;99447.06;;;8.19;100.00
18022;BME280;9136;48.822;7.966;2022-09-30T03:42:46;99487.13;;;8.46;100.00
18022;BME280;9136;48.822;7.966;2022-09-30T03:45:38;99485.56;;;8.42;100.00
18022;BME280;9136;48.822;7.966;2022-09-30T03:48:30;99462.22;;;8.36;100.00
18022;BME280;9136;48.822;7.966;2022-09-30T03:51:19;99478.09;;;8.55;100.00
18022;BME280;9136;48.822;7.966;2022-09-30T03:54:08;99482.03;;;8.43;100.00
18022;BME280;9136;48.822;7.966;2022-09-30T03:56:57;99485.50;;;8.44;100.00
18022;BME280;9136;48.822;7.966;2022-09-30T03:59:48;99488.91;;;8.46;100.00
18022;BME280;9136;48.822;7.966;2022-09-30T04:02:36;99484.38;;;8.51;100.00
18022;BME280;9136;48.822;7.966;2022-09-30T04:05:25;99484.59;;;8.45;100.00
18022;BME280;9136;48.822;7.966;2022-09-30T04:08:13;99450.44;;;8.23;100.00
18022;BME280;9136;48.822;7.966;2022-09-30T04:11:02;99459.78;;;8.30;100.00
18022;BME280;9136;48.822;7.966;2022-09-30T04:13:50;99463.41;;;8.26;100.00
18022;BME280;9136;48.822;7.966;2022-09-30T04:16:38;99484.19;;;8.30;100.00
18022;BME280;9136;48.822;7.966;2022-09-30T04:19:27;99503.75;;;8.45;100.00
18022;BME280;9136;48.822;7.966;2022-09-30T04:22:16;99450.53;;;8.20;100.00
18022;BME280;9136;48.822;7.966;2022-09-30T04:25:05;99489.44;;;8.30;100.00
18022;BME280;9136;48.822;7.966;2022-09-30T04:27:53;99501.59;;;8.31;100.00
18022;BME280;9136;48.822;7.966;2022-09-30T04:30:41;99512.78;;;8.37;100.00
18022;BME280;9136;48.822;7.966;2022-09-30T04:33:28;99472.75;;;8.08;100.00
18022;BME280;9136;48.822;7.966;2022-09-30T04:36:17;99520.84;;;8.30;100.00
18022;BME280;9136;48.822;7.966;2022-09-30T04:39:06;99500.25;;;8.20;100.00
18022;BME280;9136;48.822;7.966;2022-09-30T04:41:54;99509.22;;;8.13;100.00
18022;BME280;9136;48.822;7.966;2022-09-30T04:44:42;99490.44;;;8.01;100.00
18022;BME280;9136;48.822;7.966;2022-09-30T04:47:30;99487.06;;;7.98;100.00
18022;BME280;9136;48.822;7.966;2022-09-30T04:50:18;99506.81;;;8.07;100.00
18022;BME280;9136;48.822;7.966;2022-09-30T04:53:06;99524.88;;;8.14;100.00
18022;BME280;9136;48.822;7.966;2022-09-30T04:55:59;99492.69;;;7.86;100.00
18022;BME280;9136;48.822;7.966;2022-09-30T04:58:47;99486.63;;;7.85;100.00
18022;BME280;9136;48.822;7.966;2022-09-30T05:01:35;99525.97;;;8.07;100.00
18022;BME280;9136;48.822;7.966;2022-09-30T05:04:22;99516.97;;;7.89;100.00
18022;BME280;9136;48.822;7.966;2022-09-30T05:07:10;99508.75;;;7.75;100.00
18022;BME280;9136;48.822;7.966;2022-09-30T05:09:59;99519.59;;;7.89;100.00
18022;BME280;9136;48.822;7.966;2022-09-30T05:12:51;99522.38;;;7.85;100.00
18022;BME280;9136;48.822;7.966;2022-09-30T05:15:39;99548.91;;;7.99;100.00
18022;BME280;9136;48.822;7.966;2022-09-30T05:18:27;99517.69;;;7.68;100.00
18022;BME280;9136;48.822;7.966;2022-09-30T05:21:17;99540.78;;;7.82;100.00
18022;BME280;9136;48.822;7.966;2022-09-30T05:24:05;99536.03;;;7.66;100.00
18022;BME280;9136;48.822;7.966;2022-09-30T05:26:53;99563.59;;;7.77;100.00
18022;BME280;9136;48.822;7.966;2022-09-30T05:29:42;99563.69;;;7.73;100.00
18022;BME280;9136;48.822;7.966;2022-09-30T05:32:30;99569.00;;;7.70;100.00
18022;BME280;9136;48.822;7.966;2022-09-30T05:35:18;99557.19;;;7.59;100.00
18022;BME280;9136;48.822;7.966;2022-09-30T05:38:06;99554.09;;;7.46;100.00
18022;BME280;9136;48.822;7.966;2022-09-30T05:40:54;99578.09;;;7.59;100.00
18022;BME280;9136;48.822;7.966;2022-09-30T05:43:42;99570.56;;;7.48;100.00
18022;BME280;9136;48.822;7.966;2022-09-30T05:46:34;99579.75;;;7.61;100.00
18022;BME280;9136;48.822;7.966;2022-09-30T05:49:22;99589.06;;;7.70;100.00
18022;BME280;9136;48.822;7.966;2022-09-30T05:52:09;99589.16;;;7.67;100.00
18022;BME280;9136;48.822;7.966;2022-09-30T05:55:02;99556.38;;;7.57;100.00
18022;BME280;9136;48.822;7.966;2022-09-30T05:57:50;99554.72;;;7.54;100.00
18022;BME280;9136;48.822;7.966;2022-09-30T06:00:40;99587.47;;;7.66;100.00
18022;BME280;9136;48.822;7.966;2022-09-30T06:03:29;99574.78;;;7.54;100.00
18022;BME280;9136;48.822;7.966;2022-09-30T06:10:24;99584.44;;;7.50;100.00
18022;BME280;9136;48.822;7.966;2022-09-30T06:13:11;99628.84;;;7.80;100.00
18022;BME280;9136;48.822;7.966;2022-09-30T06:16:00;99592.78;;;7.63;100.00
18022;BME280;9136;48.822;7.966;2022-09-30T06:18:50;99637.22;;;7.91;100.00
18022;BME280;9136;48.822;7.966;2022-09-30T06:21:37;99638.69;;;7.99;100.00
18022;BME280;9136;48.822;7.966;2022-09-30T06:24:25;99646.75;;;8.20;100.00
18022;BME280;9136;48.822;7.966;2022-09-30T06:27:13;99643.69;;;8.35;100.00
18022;BME280;9136;48.822;7.966;2022-09-30T06:30:01;99624.72;;;8.27;100.00
18022;BME280;9136;48.822;7.966;2022-09-30T06:32:49;99639.66;;;8.51;100.00
18022;BME280;9136;48.822;7.966;2022-09-30T06:35:38;99630.78;;;8.55;100.00
18022;BME280;9136;48.822;7.966;2022-09-30T06:38:27;99613.13;;;8.62;100.00
18022;BME280;9136;48.822;7.966;2022-09-30T06:41:15;99631.88;;;8.75;100.00
18022;BME280;9136;48.822;7.966;2022-09-30T06:44:03;99622.97;;;8.80;100.00
18022;BME280;9136;48.822;7.966;2022-09-30T06:46:52;99637.19;;;8.97;100.00
18022;BME280;9136;48.822;7.966;2022-09-30T06:49:40;99642.81;;;9.11;100.00
18022;BME280;9136;48.822;7.966;2022-09-30T06:52:29;99657.19;;;9.24;100.00
18022;BME280;9136;48.822;7.966;2022-09-30T06:55:17;99664.31;;;9.44;100.00
18022;BME280;9136;48.822;7.966;2022-09-30T06:58:13;99663.03;;;9.56;100.00
18022;BME280;9136;48.822;7.966;2022-09-30T07:01:04;99656.75;;;9.60;100.00
18022;BME280;9136;48.822;7.966;2022-09-30T07:03:52;99641.66;;;9.65;100.00
18022;BME280;9136;48.822;7.966;2022-09-30T07:06:43;99661.28;;;9.78;100.00
18022;BME280;9136;48.822;7.966;2022-09-30T07:09:32;99648.47;;;9.70;100.00
18022;BME280;9136;48.822;7.966;2022-09-30T07:12:22;99669.47;;;9.92;100.00
18022;BME280;9136;48.822;7.966;2022-09-30T07:15:10;99672.66;;;10.00;100.00
18022;BME280;9136;48.822;7.966;2022-09-30T07:17:58;99683.09;;;10.02;100.00
18022;BME280;9136;48.822;7.966;2022-09-30T07:20:47;99672.91;;;9.94;100.00
18022;BME280;9136;48.822;7.966;2022-09-30T07:23:36;99657.38;;;9.66;100.00
18022;BME280;9136;48.822;7.966;2022-09-30T07:26:26;99650.66;;;9.59;100.00
18022;BME280;9136;48.822;7.966;2022-09-30T07:29:14;99675.81;;;9.63;100.00
18022;BME280;9136;48.822;7.966;2022-09-30T07:32:02;99688.31;;;9.57;100.00
18022;BME280;9136;48.822;7.966;2022-09-30T07:34:50;99698.63;;;9.61;100.00
18022;BME280;9136;48.822;7.966;2022-09-30T07:37:38;99701.47;;;9.55;100.00
18022;BME280;9136;48.822;7.966;2022-09-30T07:40:26;99705.84;;;9.56;100.00
18022;BME280;9136;48.822;7.966;2022-09-30T07:43:18;99697.59;;;9.42;100.00
18022;BME280;9136;48.822;7.966;2022-09-30T07:46:07;99717.56;;;9.46;100.00
18022;BME280;9136;48.822;7.966;2022-09-30T07:49:01;99717.19;;;9.32;100.00
18022;BME280;9136;48.822;7.966;2022-09-30T07:51:57;99726.09;;;9.51;100.00
18022;BME280;9136;48.822;7.966;2022-09-30T07:54:45;99709.34;;;9.55;100.00
18022;BME280;9136;48.822;7.966;2022-09-30T07:57:33;99735.75;;;9.97;100.00
18022;BME280;9136;48.822;7.966;2022-09-30T08:00:22;99734.94;;;10.42;100.00
18022;BME280;9136;48.822;7.966;2022-09-30T08:03:10;99752.56;;;10.82;100.00
18022;BME280;9136;48.822;7.966;2022-09-30T08:06:02;99733.09;;;10.86;100.00
18022;BME280;9136;48.822;7.966;2022-09-30T08:08:51;99756.91;;;11.04;100.00
18022;BME280;9136;48.822;7.966;2022-09-30T08:11:40;99736.81;;;11.03;100.00
18022;BME280;9136;48.822;7.966;2022-09-30T08:14:30;99733.78;;;10.92;100.00
18022;BME280;9136;48.822;7.966;2022-09-30T08:17:19;99744.22;;;10.93;100.00
18022;BME280;9136;48.822;7.966;2022-09-30T08:20:08;99762.53;;;10.95;100.00
18022;BME280;9136;48.822;7.966;2022-09-30T08:22:56;99757.81;;;11.03;100.00
18022;BME280;9136;48.822;7.966;2022-09-30T08:25:44;99763.22;;;10.78;100.00
18022;BME280;9136;48.822;7.966;2022-09-30T08:28:33;99768.13;;;10.65;100.00
18022;BME280;9136;48.822;7.966;2022-09-30T08:31:22;99752.88;;;10.53;100.00
18022;BME280;9136;48.822;7.966;2022-09-30T08:34:12;99758.34;;;10.47;100.00
18022;BME280;9136;48.822;7.966;2022-09-30T08:37:00;99791.41;;;10.74;100.00
18022;BME280;9136;48.822;7.966;2022-09-30T08:39:48;99793.47;;;11.10;100.00
18022;BME280;9136;48.822;7.966;2022-09-30T08:42:53;99786.97;;;11.39;100.00
18022;BME280;9136;48.822;7.966;2022-09-30T08:45:53;99805.00;;;11.67;100.00
18022;BME280;9136;48.822;7.966;2022-09-30T08:48:54;99781.63;;;11.81;100.00
18022;BME280;9136;48.822;7.966;2022-09-30T08:51:49;99786.91;;;12.00;100.00
18022;BME280;9136;48.822;7.966;2022-09-30T08:54:43;99815.81;;;12.39;100.00
18022;BME280;9136;48.822;7.966;2022-09-30T08:57:35;99775.31;;;12.23;100.00
18022;BME280;9136;48.822;7.966;2022-09-30T09:00:25;99802.31;;;12.28;100.00
18022;BME280;9136;48.822;7.966;2022-09-30T09:03:13;99784.44;;;11.97;100.00
18022;BME280;9136;48.822;7.966;2022-09-30T09:06:15;99821.28;;;12.16;100.00
18022;BME280;9136;48.822;7.966;2022-09-30T09:09:24;99778.78;;;11.86;100.00
18022;BME280;9136;48.822;7.966;2022-09-30T09:12:25;99797.38;;;12.01;100.00
18022;BME280;9136;48.822;7.966;2022-09-30T09:15:27;99776.09;;;12.25;100.00
18022;BME280;9136;48.822;7.966;2022-09-30T09:18:25;99802.09;;;12.87;100.00
18022;BME280;9136;48.822;7.966;2022-09-30T09:21:22;99826.06;;;13.36;100.00
18022;BME280;9136;48.822;7.966;2022-09-30T09:24:18;99785.47;;;13.39;100.00
18022;BME280;9136;48.822;7.966;2022-09-30T09:27:18;99793.22;;;13.59;100.00
18022;BME280;9136;48.822;7.966;2022-09-30T09:30:08;99797.13;;;13.52;100.00
18022;BME280;9136;48.822;7.966;2022-09-30T09:33:00;99802.91;;;13.59;100.00
18022;BME280;9136;48.822;7.966;2022-09-30T09:35:52;99804.22;;;13.67;100.00
18022;BME280;9136;48.822;7.966;2022-09-30T09:38:56;99783.09;;;13.52;100.00
18022;BME280;9136;48.822;7.966;2022-09-30T09:41:53;99807.41;;;14.07;100.00
18022;BME280;9136;48.822;7.966;2022-09-30T09:44:50;99815.25;;;14.09;100.00
18022;BME280;9136;48.822;7.966;2022-09-30T09:47:46;99793.69;;;14.16;100.00
18022;BME280;9136;48.822;7.966;2022-09-30T09:50:41;99804.75;;;14.56;100.00
18022;BME280;9136;48.822;7.966;2022-09-30T09:53:41;99807.03;;;14.30;100.00
18022;BME280;9136;48.822;7.966;2022-09-30T09:56:31;99812.53;;;14.59;100.00
18022;BME280;9136;48.822;7.966;2022-09-30T09:59:22;99794.03;;;14.59;100.00
18022;BME280;9136;48.822;7.966;2022-09-30T10:02:21;99807.84;;;14.64;100.00
18022;BME280;9136;48.822;7.966;2022-09-30T10:05:22;99802.19;;;14.39;100.00
18022;BME280;9136;48.822;7.966;2022-09-30T10:08:15;99800.81;;;14.47;100.00
18022;BME280;9136;48.822;7.966;2022-09-30T10:11:04;99805.59;;;14.41;100.00
18022;BME280;9136;48.822;7.966;2022-09-30T10:13:54;99828.56;;;14.87;100.00
18022;BME280;9136;48.822;7.966;2022-09-30T10:16:45;99829.66;;;15.59;100.00
18022;BME280;9136;48.822;7.966;2022-09-30T10:19:34;99804.88;;;16.05;100.00
18022;BME280;9136;48.822;7.966;2022-09-30T10:22:25;99790.16;;;16.27;100.00
18022;BME280;9136;48.822;7.966;2022-09-30T10:25:22;99820.59;;;16.63;100.00
18022;BME280;9136;48.822;7.966;2022-09-30T10:28:25;99793.34;;;16.88;100.00
18022;BME280;9136;48.822;7.966;2022-09-30T10:31:16;99815.88;;;16.95;100.00
18022;BME280;9136;48.822;7.966;2022-09-30T10:34:16;99791.66;;;16.87;100.00
18022;BME280;9136;48.822;7.966;2022-09-30T10:37:12;99807.59;;;17.92;99.38
18022;BME280;9136;48.822;7.966;2022-09-30T10:40:03;99791.06;;;19.22;82.37
18022;BME280;9136;48.822;7.966;2022-09-30T10:42:53;99800.94;;;21.44;62.05
18022;BME280;9136;48.822;7.966;2022-09-30T10:45:43;99817.78;;;22.38;55.96
18022;BME280;9136;48.822;7.966;2022-09-30T10:52:23;99818.56;;;24.51;42.26
18022;BME280;9136;48.822;7.966;2022-09-30T10:55:30;99808.78;;;25.58;41.58
18022;BME280;9136;48.822;7.966;2022-09-30T10:58:23;99815.03;;;25.41;43.03
18022;BME280;9136;48.822;7.966;2022-09-30T11:01:24;99785.78;;;26.50;41.29
18022;BME280;9136;48.822;7.966;2022-09-30T11:04:21;99802.34;;;27.14;38.21
18022;BME280;9136;48.822;7.966;2022-09-30T11:07:14;99811.94;;;27.65;38.12
18022;BME280;9136;48.822;7.966;2022-09-30T11:10:25;99804.50;;;27.18;39.85
18022;BME280;9136;48.822;7.966;2022-09-30T11:13:19;99814.63;;;27.65;37.44
18022;BME280;9136;48.822;7.966;2022-09-30T11:16:14;99792.19;;;27.07;38.62
18022;BME280;9136;48.822;7.966;2022-09-30T11:19:09;99801.91;;;25.64;42.33
18022;BME280;9136;48.822;7.966;2022-09-30T11:22:07;99810.59;;;26.62;38.94
18022;BME280;9136;48.822;7.966;2022-09-30T11:24:58;99794.09;;;28.36;36.05
18022;BME280;9136;48.822;7.966;2022-09-30T11:28:04;99787.81;;;28.43;36.68
18022;BME280;9136;48.822;7.966;2022-09-30T11:31:05;99799.34;;;26.66;39.12
18022;BME280;9136;48.822;7.966;2022-09-30T11:34:03;99795.91;;;25.08;42.45
18022;BME280;9136;48.822;7.966;2022-09-30T11:36:59;99791.03;;;24.94;41.39
18022;BME280;9136;48.822;7.966;2022-09-30T11:40:01;99811.13;;;27.81;37.00
18022;BME280;9136;48.822;7.966;2022-09-30T11:42:57;99778.06;;;27.22;38.01
18022;BME280;9136;48.822;7.966;2022-09-30T11:46:00;99803.03;;;26.31;40.70
18022;BME280;9136;48.822;7.966;2022-09-30T11:52:28;99786.50;;;24.12;44.74
18022;BME280;9136;48.822;7.966;2022-09-30T11:55:34;99778.78;;;26.65;41.23
18022;BME280;9136;48.822;7.966;2022-09-30T11:58:31;99797.91;;;28.10;36.64
18022;BME280;9136;48.822;7.966;2022-09-30T12:01:27;99780.06;;;25.85;39.49
18022;BME280;9136;48.822;7.966;2022-09-30T12:04:22;99795.69;;;27.00;36.94
18022;BME280;9136;48.822;7.966;2022-09-30T12:07:16;99793.84;;;28.93;36.53
18022;BME280;9136;48.822;7.966;2022-09-30T12:10:13;99792.59;;;28.33;36.60
18022;BME280;9136;48.822;7.966;2022-09-30T12:13:05;99780.13;;;25.49;41.47
18022;BME280;9136;48.822;7.966;2022-09-30T12:16:00;99781.91;;;27.11;39.29
18022;BME280;9136;48.822;7.966;2022-09-30T12:18:52;99787.94;;;26.97;38.96
18022;BME280;9136;48.822;7.966;2022-09-30T12:21:47;99789.28;;;26.08;43.80
18022;BME280;9136;48.822;7.966;2022-09-30T12:24:40;99814.41;;;26.93;38.60
18022;BME280;9136;48.822;7.966;2022-09-30T12:27:33;99819.72;;;28.87;31.62
18022;BME280;9136;48.822;7.966;2022-09-30T12:30:21;99811.09;;;25.18;39.86
18022;BME280;9136;48.822;7.966;2022-09-30T12:33:34;99806.69;;;23.79;41.36
18022;BME280;9136;48.822;7.966;2022-09-30T12:36:37;99813.13;;;27.46;32.28
18022;BME280;9136;48.822;7.966;2022-09-30T12:46:38;99784.28;;;21.40;52.54
18022;BME280;9136;48.822;7.966;2022-09-30T12:49:32;99798.28;;;22.16;54.49
18022;BME280;9136;48.822;7.966;2022-09-30T12:52:21;99809.16;;;25.46;42.13
18022;BME280;9136;48.822;7.966;2022-09-30T12:55:23;99807.72;;;25.33;42.58
18022;BME280;9136;48.822;7.966;2022-09-30T12:58:19;99792.66;;;25.58;40.77
18022;BME280;9136;48.822;7.966;2022-09-30T13:01:13;99800.94;;;26.51;39.68
18022;BME280;9136;48.822;7.966;2022-09-30T13:04:30;99782.69;;;26.03;37.29
18022;BME280;9136;48.822;7.966;2022-09-30T13:07:21;99797.28;;;26.26;39.68
18022;BME280;9136;48.822;7.966;2022-09-30T13:10:27;99788.38;;;25.30;42.94
18022;BME280;9136;48.822;7.966;2022-09-30T13:13:20;99772.63;;;21.83;52.67
18022;BME280;9136;48.822;7.966;2022-09-30T13:16:09;99793.75;;;21.12;65.09
18022;BME280;9136;48.822;7.966;2022-09-30T13:18:59;99799.75;;;20.28;65.83
18022;BME280;9136;48.822;7.966;2022-09-30T13:21:47;99788.00;;;19.51;73.29
18022;BME280;9136;48.822;7.966;2022-09-30T13:25:09;99803.25;;;21.79;53.42
18022;BME280;9136;48.822;7.966;2022-09-30T13:28:26;99813.63;;;19.05;65.98
18022;BME280;9136;48.822;7.966;2022-09-30T13:31:16;99796.13;;;17.91;76.90
18022;BME280;9136;48.822;7.966;2022-09-30T13:34:10;99807.97;;;17.48;84.01
18022;BME280;9136;48.822;7.966;2022-09-30T13:36:59;99798.28;;;16.94;91.72
18022;BME280;9136;48.822;7.966;2022-09-30T13:39:50;99798.41;;;17.05;92.64
18022;BME280;9136;48.822;7.966;2022-09-30T13:42:49;99809.03;;;17.05;88.84
18022;BME280;9136;48.822;7.966;2022-09-30T13:45:41;99810.53;;;17.09;97.38
18022;BME280;9136;48.822;7.966;2022-09-30T13:48:32;99788.75;;;16.36;100.00
18022;BME280;9136;48.822;7.966;2022-09-30T13:51:23;99791.03;;;16.83;78.51
18022;BME280;9136;48.822;7.966;2022-09-30T13:54:26;99790.19;;;17.23;72.23
18022;BME280;9136;48.822;7.966;2022-09-30T13:57:22;99805.25;;;17.74;85.53
18022;BME280;9136;48.822;7.966;2022-09-30T14:00:15;99791.59;;;17.28;78.75
18022;BME280;9136;48.822;7.966;2022-09-30T14:03:18;99813.13;;;18.01;63.14
18022;BME280;9136;48.822;7.966;2022-09-30T14:06:16;99813.81;;;18.42;73.33
18022;BME280;9136;48.822;7.966;2022-09-30T14:09:26;99808.13;;;18.59;73.76
18022;BME280;9136;48.822;7.966;2022-09-30T14:12:33;99812.66;;;18.46;75.25
18022;BME280;9136;48.822;7.966;2022-09-30T14:19:09;99768.94;;;18.98;82.42
18022;BME280;9136;48.822;7.966;2022-09-30T14:22:04;99794.31;;;18.91;76.02
18022;BME280;9136;48.822;7.966;2022-09-30T14:24:53;99800.81;;;18.50;77.28
18022;BME280;9136;48.822;7.966;2022-09-30T14:27:51;99785.78;;;18.25;76.99
18022;BME280;9136;48.822;7.966;2022-09-30T14:30:42;99798.50;;;17.56;81.02
18022;BME280;9136;48.822;7.966;2022-09-30T14:33:51;99806.81;;;17.52;90.63
18022;BME280;9136;48.822;7.966;2022-09-30T14:36:40;99791.19;;;17.47;84.10
18022;BME280;9136;48.822;7.966;2022-09-30T14:39:29;99783.13;;;17.49;87.15
18022;BME280;9136;48.822;7.966;2022-09-30T14:42:23;99796.63;;;17.58;91.47
18022;BME280;9136;48.822;7.966;2022-09-30T14:45:21;99785.66;;;17.50;91.81
18022;BME280;9136;48.822;7.966;2022-09-30T14:48:15;99799.09;;;17.22;95.79
18022;BME280;9136;48.822;7.966;2022-09-30T14:51:06;99774.88;;;17.13;86.44
18022;BME280;9136;48.822;7.966;2022-09-30T14:53:58;99774.66;;;17.82;90.39
18022;BME280;9136;48.822;7.966;2022-09-30T14:56:48;99802.75;;;17.46;92.41
18022;BME280;9136;48.822;7.966;2022-09-30T14:59:36;99801.13;;;17.96;87.03
18022;BME280;9136;48.822;7.966;2022-09-30T15:02:25;99804.13;;;18.41;75.76
18022;BME280;9136;48.822;7.966;2022-09-30T15:05:15;99790.69;;;19.15;63.21
18022;BME280;9136;48.822;7.966;2022-09-30T15:08:09;99800.06;;;19.32;71.17
18022;BME280;9136;48.822;7.966;2022-09-30T15:10:58;99772.59;;;19.32;64.29
18022;BME280;9136;48.822;7.966;2022-09-30T15:13:46;99765.66;;;19.29;59.01
18022;BME280;9136;48.822;7.966;2022-09-30T15:16:44;99793.16;;;19.65;58.19
18022;BME280;9136;48.822;7.966;2022-09-30T15:19:33;99790.94;;;19.59;61.50
18022;BME280;9136;48.822;7.966;2022-09-30T15:22:22;99788.19;;;19.36;64.84
18022;BME280;9136;48.822;7.966;2022-09-30T15:25:11;99798.53;;;19.17;64.64
18022;BME280;9136;48.822;7.966;2022-09-30T15:28:01;99773.81;;;19.04;59.99
18022;BME280;9136;48.822;7.966;2022-09-30T15:30:49;99780.22;;;18.28;72.78
18022;BME280;9136;48.822;7.966;2022-09-30T15:33:41;99781.19;;;18.14;71.92
18022;BME280;9136;48.822;7.966;2022-09-30T15:36:31;99780.06;;;18.06;74.49
18022;BME280;9136;48.822;7.966;2022-09-30T15:39:22;99771.38;;;17.78;63.02
18022;BME280;9136;48.822;7.966;2022-09-30T15:42:34;99783.97;;;17.49;63.81
18022;BME280;9136;48.822;7.966;2022-09-30T15:45:29;99782.69;;;17.55;69.30
18022;BME280;9136;48.822;7.966;2022-09-30T15:48:32;99780.66;;;17.45;67.05
18022;BME280;9136;48.822;7.966;2022-09-30T15:54:28;99796.56;;;16.93;69.93